createdAt,value
2018-12-17T00:00:10.490Z,101042.88
2018-12-17T00:02:37.986Z,101047.94
2018-12-17T00:05:05.504Z,101053.57
2018-12-17T00:07:33.056Z,101053.28
2018-12-17T00:10:00.910Z,101061.05
2018-12-17T00:12:28.405Z,101057.08
2018-12-17T00:14:55.916Z,101051.20
2018-12-17T00:17:23.531Z,101054.70
2018-12-17T00:19:51.021Z,101049.16
2018-12-17T00:22:18.514Z,101047.57
2018-12-17T00:24:46.073Z,101048.15
2018-12-17T00:27:13.563Z,101055.92
2018-12-17T00:29:41.096Z,101058.01
2018-12-17T00:32:08.592Z,101054.54
2018-12-17T00:34:36.092Z,101051.91
2018-12-17T00:37:03.684Z,101056.96
2018-12-17T00:39:31.190Z,101056.67
2018-12-17T00:41:58.681Z,101057.77
2018-12-17T00:44:26.222Z,101068.98
2018-12-17T00:46:53.754Z,101073.79
2018-12-17T00:49:21.261Z,101085.81
2018-12-17T00:51:48.749Z,101085.06
2018-12-17T00:54:16.259Z,101080.77
2018-12-17T00:56:43.739Z,101085.31
2018-12-17T00:59:11.269Z,101091.45
2018-12-17T01:01:38.936Z,101094.16
2018-12-17T01:04:06.535Z,101095.25
2018-12-17T01:06:34.053Z,101087.73
2018-12-17T01:09:01.568Z,101089.06
2018-12-17T01:11:29.066Z,101092.83
2018-12-17T01:13:56.550Z,101094.45
2018-12-17T01:16:24.193Z,101099.55
2018-12-17T01:18:51.679Z,101101.44
2018-12-17T01:21:19.157Z,101104.64
2018-12-17T01:23:46.673Z,101100.34
2018-12-17T01:26:14.253Z,101095.00
2018-12-17T01:28:42.058Z,101097.17
2018-12-17T01:31:09.544Z,101093.95
2018-12-17T01:33:37.036Z,101091.04
2018-12-17T01:36:04.653Z,101095.67
2018-12-17T01:38:32.174Z,101102.86
2018-12-17T01:40:59.659Z,101113.55
2018-12-17T01:43:27.312Z,101120.47
2018-12-17T01:45:54.801Z,101122.10
2018-12-17T01:48:22.286Z,101122.10
2018-12-17T01:50:49.839Z,101125.86
2018-12-17T01:53:17.362Z,101132.30
2018-12-17T01:55:44.911Z,101129.08
2018-12-17T01:58:12.396Z,101121.06
2018-12-17T02:00:39.893Z,101117.59
2018-12-17T02:03:07.402Z,101117.34
2018-12-17T02:05:34.897Z,101120.31
2018-12-17T02:08:02.526Z,101122.73
2018-12-17T02:10:30.057Z,101116.34
2018-12-17T02:12:57.591Z,101126.79
2018-12-17T02:15:25.126Z,101127.38
2018-12-17T02:17:52.607Z,101127.08
2018-12-17T02:20:20.121Z,101119.06
2018-12-17T02:22:47.625Z,101115.89
2018-12-17T02:25:15.161Z,101112.47
2018-12-17T02:27:42.896Z,101114.05
2018-12-17T02:30:10.415Z,101111.13
2018-12-17T02:32:37.967Z,101108.45
2018-12-17T02:35:05.485Z,101110.59
2018-12-17T02:37:32.992Z,101119.11
2018-12-17T02:40:00.575Z,101118.56
2018-12-17T02:42:28.110Z,101121.82
2018-12-17T02:44:55.596Z,101129.34
2018-12-17T02:47:23.074Z,101126.38
2018-12-17T02:49:50.572Z,101128.80
2018-12-17T02:52:18.105Z,101128.59
2018-12-17T02:54:45.612Z,101131.59
2018-12-17T02:57:13.117Z,101127.05
2018-12-17T02:59:40.657Z,101131.89
2018-12-17T03:02:08.169Z,101131.89
2018-12-17T03:04:35.667Z,101128.75
2018-12-17T03:07:03.283Z,101133.56
2018-12-17T03:09:30.764Z,101130.34
2018-12-17T03:11:58.256Z,101124.24
2018-12-17T03:14:25.771Z,101121.03
2018-12-17T03:16:53.259Z,101125.88
2018-12-17T03:19:20.765Z,101126.91
2018-12-17T03:21:48.426Z,101132.02
2018-12-17T03:24:15.916Z,101130.67
2018-12-17T03:26:43.443Z,101137.41
2018-12-17T03:29:10.993Z,101132.05
2018-12-17T03:31:38.686Z,101139.83
2018-12-17T03:34:06.226Z,101130.18
2018-12-17T03:36:33.747Z,101137.70
2018-12-17T03:39:01.308Z,101136.11
2018-12-17T03:41:28.818Z,101141.78
2018-12-17T03:43:56.312Z,101132.42
2018-12-17T03:46:23.817Z,101130.01
2018-12-17T03:48:51.342Z,101137.81
2018-12-17T03:51:18.847Z,101134.06
2018-12-17T03:53:46.356Z,101137.31
2018-12-17T03:56:13.866Z,101136.48
2018-12-17T03:58:41.519Z,101135.98
2018-12-17T04:01:09.004Z,101136.77
2018-12-17T04:03:36.491Z,101135.98
2018-12-17T04:06:03.997Z,101149.35
2018-12-17T04:08:31.532Z,101145.84
2018-12-17T04:10:59.141Z,101147.18
2018-12-17T04:13:26.644Z,101149.31
2018-12-17T04:15:54.168Z,101150.64
2018-12-17T04:18:22.284Z,101141.83
2018-12-17T04:20:49.779Z,101145.30
2018-12-17T04:23:17.332Z,101152.27
2018-12-17T04:25:44.944Z,101144.50
2018-12-17T04:28:12.485Z,101152.02
2018-12-17T04:30:39.974Z,101151.19
2018-12-17T04:33:07.500Z,101146.38
2018-12-17T04:35:34.981Z,101150.14
2018-12-17T04:38:02.478Z,101149.39
2018-12-17T04:40:29.994Z,101150.77
2018-12-17T04:42:57.621Z,101151.31
2018-12-17T04:45:25.142Z,101145.20
2018-12-17T04:47:52.659Z,101151.93
2018-12-17T04:50:20.161Z,101154.06
2018-12-17T04:52:47.643Z,101158.37
2018-12-17T04:55:15.178Z,101159.45
2018-12-17T04:57:42.925Z,101157.07
2018-12-17T05:00:10.453Z,101149.59
2018-12-17T05:02:37.950Z,101151.51
2018-12-17T05:05:05.465Z,101151.80
2018-12-17T05:07:33.159Z,101152.59
2018-12-17T05:10:00.817Z,101155.27
2018-12-17T05:12:28.305Z,101158.23
2018-12-17T05:14:55.788Z,101159.86
2018-12-17T05:17:23.320Z,101160.41
2018-12-17T05:19:50.808Z,101169.27
2018-12-17T05:22:18.419Z,101166.05
2018-12-17T05:24:45.904Z,101170.60
2018-12-17T05:27:13.386Z,101171.69
2018-12-17T05:29:40.901Z,101175.16
2018-12-17T05:32:08.404Z,101179.46
2018-12-17T05:34:35.895Z,101180.51
2018-12-17T05:37:03.418Z,101176.25
2018-12-17T05:39:30.967Z,101181.89
2018-12-17T05:41:58.621Z,101175.99
2018-12-17T05:44:26.105Z,101181.64
2018-12-17T05:46:53.612Z,101184.89
2018-12-17T05:49:21.461Z,101190.24
2018-12-17T05:51:48.952Z,101189.45
2018-12-17T05:54:16.445Z,101187.86
2018-12-17T05:56:43.993Z,101187.06
2018-12-17T05:59:11.475Z,101186.02
2018-12-17T06:01:39.016Z,101186.02
2018-12-17T06:04:06.499Z,101186.56
2018-12-17T06:06:34.071Z,101182.03
2018-12-17T06:09:02.028Z,101188.48
2018-12-17T06:11:29.697Z,101187.17
2018-12-17T06:13:57.372Z,101188.52
2018-12-17T06:16:25.085Z,101193.07
2018-12-17T06:18:52.612Z,101197.34
2018-12-17T06:21:20.096Z,101200.56
2018-12-17T06:23:47.629Z,101198.13
2018-12-17T06:26:15.183Z,101191.98
2018-12-17T06:28:42.737Z,101188.52
2018-12-17T06:31:10.307Z,101194.62
2018-12-17T06:33:38.061Z,101191.69
2018-12-17T06:36:05.947Z,101185.80
2018-12-17T06:38:33.465Z,101194.92
2018-12-17T06:41:00.985Z,101195.70
2018-12-17T06:43:28.489Z,101189.81
2018-12-17T06:45:55.982Z,101193.83
2018-12-17T06:48:23.503Z,101191.41
2018-12-17T06:50:51.020Z,101193.00
2018-12-17T06:53:18.509Z,101198.56
2018-12-17T06:55:46.019Z,101198.34
2018-12-17T06:58:13.823Z,101202.91
2018-12-17T07:00:41.337Z,101202.36
2018-12-17T07:03:08.830Z,101206.34
2018-12-17T07:05:36.437Z,101217.08
2018-12-17T07:08:03.915Z,101213.53
2018-12-17T07:10:31.401Z,101217.30
2018-12-17T07:12:58.915Z,101216.54
2018-12-17T07:15:26.400Z,101224.03
2018-12-17T07:17:53.942Z,101228.05
2018-12-17T07:20:21.441Z,101228.58
2018-12-17T07:22:48.932Z,101233.97
2018-12-17T07:25:16.453Z,101229.70
2018-12-17T07:27:44.030Z,101239.66
2018-12-17T07:30:11.529Z,101239.62
2018-12-17T07:32:39.022Z,101236.44
2018-12-17T07:35:06.568Z,101239.41
2018-12-17T07:37:34.146Z,101241.83
2018-12-17T07:40:01.775Z,101246.68
2018-12-17T07:42:29.280Z,101242.12
2018-12-17T07:44:56.805Z,101252.03
2018-12-17T07:47:24.330Z,101247.02
2018-12-17T07:49:51.861Z,101248.89
2018-12-17T07:52:19.357Z,101248.34
2018-12-17T07:54:46.841Z,101246.00
2018-12-17T07:57:14.604Z,101254.83
2018-12-17T07:59:42.141Z,101249.47
2018-12-17T08:02:09.658Z,101255.92
2018-12-17T08:04:37.207Z,101262.65
2018-12-17T08:07:04.825Z,101262.94
2018-12-17T08:09:32.321Z,101273.97
2018-12-17T08:11:59.822Z,101268.66
2018-12-17T08:14:27.573Z,101279.88
2018-12-17T08:16:55.180Z,101275.10
2018-12-17T08:19:22.737Z,101278.11
2018-12-17T08:21:50.356Z,101275.69
2018-12-17T08:24:17.833Z,101272.80
2018-12-17T08:26:45.384Z,101271.99
2018-12-17T08:29:13.208Z,101275.76
2018-12-17T08:31:40.736Z,101276.59
2018-12-17T08:34:08.211Z,101279.52
2018-12-17T08:36:35.878Z,101280.39
2018-12-17T08:39:03.637Z,101274.20
2018-12-17T08:41:31.158Z,101281.16
2018-12-17T08:43:58.657Z,101286.77
2018-12-17T08:46:26.145Z,101286.00
2018-12-17T08:48:53.661Z,101289.80
2018-12-17T08:51:21.143Z,101284.45
2018-12-17T08:53:48.643Z,101283.87
2018-12-17T08:56:16.123Z,101294.83
2018-12-17T08:58:43.629Z,101288.14
2018-12-17T09:01:11.148Z,101288.14
2018-12-17T09:03:38.648Z,101287.89
2018-12-17T09:06:06.283Z,101294.62
2018-12-17T09:08:33.827Z,101298.59
2018-12-17T09:11:02.509Z,101300.52
2018-12-17T09:13:30.255Z,101300.81
2018-12-17T09:15:57.827Z,101299.76
2018-12-17T09:18:25.321Z,101303.02
2018-12-17T09:20:52.807Z,101300.05
2018-12-17T09:23:20.311Z,101307.03
2018-12-17T09:25:47.791Z,101303.60
2018-12-17T09:28:15.439Z,101310.30
2018-12-17T09:30:42.935Z,101315.15
2018-12-17T09:33:10.428Z,101319.71
2018-12-17T09:35:37.951Z,101320.00
2018-12-17T09:38:05.436Z,101315.73
2018-12-17T09:40:32.919Z,101315.22
2018-12-17T09:43:00.660Z,101313.67
2018-12-17T09:45:28.143Z,101316.63
2018-12-17T09:47:55.961Z,101316.13
2018-12-17T09:50:23.445Z,101318.30
2018-12-17T09:52:50.988Z,101317.28
2018-12-17T09:55:18.928Z,101315.94
2018-12-17T09:57:46.420Z,101316.73
2018-12-17T10:00:13.896Z,101315.72
2018-12-17T10:02:41.393Z,101313.62
2018-12-17T10:05:08.904Z,101318.19
2018-12-17T10:07:36.454Z,101321.22
2018-12-17T10:10:05.057Z,101317.45
2018-12-17T10:12:32.548Z,101313.50
2018-12-17T10:15:00.040Z,101319.44
2018-12-17T10:17:27.583Z,101320.27
2018-12-17T10:19:55.107Z,101309.83
2018-12-17T10:22:22.601Z,101309.32
2018-12-17T10:24:50.106Z,101309.06
2018-12-17T10:27:17.597Z,101307.98
2018-12-17T10:29:45.208Z,101306.70
2018-12-17T10:32:12.688Z,101302.97
2018-12-17T10:34:40.202Z,101307.79
2018-12-17T10:37:07.701Z,101305.14
2018-12-17T10:39:35.189Z,101300.06
2018-12-17T10:42:02.689Z,101307.84
2018-12-17T10:44:30.178Z,101305.48
2018-12-17T10:46:57.734Z,101307.08
2018-12-17T10:49:25.233Z,101308.68
2018-12-17T10:51:53.015Z,101311.65
2018-12-17T10:54:20.539Z,101304.43
2018-12-17T10:56:48.053Z,101308.23
2018-12-17T10:59:15.561Z,101307.20
2018-12-17T11:01:56.797Z,101302.41
2018-12-17T11:04:24.585Z,101299.75
2018-12-17T11:06:52.201Z,101310.77
2018-12-17T11:09:19.685Z,101309.42
2018-12-17T11:11:47.173Z,101301.41
2018-12-17T11:14:14.691Z,101305.17
2018-12-17T11:16:42.213Z,101306.80
2018-12-17T11:19:09.737Z,101314.36
2018-12-17T11:21:37.324Z,101317.61
2018-12-17T11:24:04.802Z,101314.13
2018-12-17T11:26:32.413Z,101304.77
2018-12-17T11:28:59.928Z,101301.86
2018-12-17T11:31:27.404Z,101300.25
2018-12-17T11:33:54.915Z,101295.17
2018-12-17T11:36:22.415Z,101296.82
2018-12-17T11:38:50.281Z,101294.45
2018-12-17T11:41:17.794Z,101296.84
2018-12-17T11:43:45.281Z,101298.47
2018-12-17T11:46:13.216Z,101307.63
2018-12-17T11:48:41.227Z,101302.55
2018-12-17T11:51:08.725Z,101300.14
2018-12-17T11:53:36.229Z,101306.88
2018-12-17T11:56:03.722Z,101302.88
2018-12-17T11:58:31.338Z,101303.18
2018-12-17T12:00:59.753Z,101296.75
2018-12-17T12:03:27.421Z,101301.05
2018-12-17T12:05:55.147Z,101301.08
2018-12-17T12:08:22.870Z,101303.27
2018-12-17T12:10:50.380Z,101301.67
2018-12-17T12:13:17.909Z,101309.22
2018-12-17T12:15:45.411Z,101308.70
2018-12-17T12:18:12.966Z,101311.65
2018-12-17T12:20:40.469Z,101314.09
2018-12-17T12:23:07.956Z,101320.05
2018-12-17T12:25:35.874Z,101317.90
2018-12-17T12:28:03.392Z,101317.41
2018-12-17T12:30:30.875Z,101318.48
2018-12-17T12:32:58.541Z,101316.64
2018-12-17T12:35:26.030Z,101314.25
2018-12-17T12:37:53.512Z,101310.51
2018-12-17T12:40:21.051Z,101316.70
2018-12-17T12:42:51.742Z,101321.28
2018-12-17T12:45:18.072Z,101318.63
2018-12-17T12:47:45.620Z,101314.63
2018-12-17T12:50:13.132Z,101329.16
2018-12-17T12:52:40.634Z,101321.66
2018-12-17T12:55:08.546Z,101328.67
2018-12-17T12:57:36.028Z,101332.20
2018-12-17T13:00:04.186Z,101328.70
2018-12-17T13:02:32.036Z,101324.98
2018-12-17T13:04:59.520Z,101339.52
2018-12-17T13:07:27.121Z,101337.66
2018-12-17T13:09:54.634Z,101334.98
2018-12-17T13:12:22.136Z,101340.94
2018-12-17T13:14:49.754Z,101336.69
2018-12-17T13:17:22.786Z,101341.55
2018-12-17T13:19:50.400Z,101346.67
2018-12-17T13:22:18.455Z,101341.30
2018-12-17T13:24:45.949Z,101342.68
2018-12-17T13:27:13.471Z,101352.66
2018-12-17T13:29:41.046Z,101359.64
2018-12-17T13:32:08.583Z,101361.56
2018-12-17T13:34:36.073Z,101364.52
2018-12-17T13:37:03.926Z,101366.42
2018-12-17T13:39:31.421Z,101371.81
2018-12-17T13:41:58.914Z,101375.86
2018-12-17T13:44:26.446Z,101373.47
2018-12-17T13:46:53.934Z,101375.89
2018-12-17T13:49:21.414Z,101375.62
2018-12-17T13:51:54.564Z,101375.33
2018-12-17T13:54:22.099Z,101379.94
2018-12-17T13:56:49.627Z,101379.39
2018-12-17T13:59:17.142Z,101385.31
2018-12-17T14:01:51.227Z,101382.36
2018-12-17T14:04:14.246Z,101394.98
2018-12-17T14:06:41.760Z,101399.58
2018-12-17T14:09:09.293Z,101402.55
2018-12-17T14:11:37.287Z,101406.60
2018-12-17T14:14:04.768Z,101414.13
2018-12-17T14:16:38.225Z,101414.67
2018-12-17T14:19:11.391Z,101418.44
2018-12-17T14:21:44.533Z,101424.63
2018-12-17T14:24:12.093Z,101424.63
2018-12-17T14:26:39.582Z,101427.88
2018-12-17T14:29:07.220Z,101434.05
2018-12-17T14:31:34.712Z,101440.50
2018-12-17T14:34:02.196Z,101441.06
2018-12-17T14:36:30.171Z,101440.80
2018-12-17T14:38:57.776Z,101429.75
2018-12-17T14:41:25.263Z,101444.58
2018-12-17T14:43:54.877Z,101440.55
2018-12-17T14:46:22.367Z,101442.98
2018-12-17T14:48:49.857Z,101459.41
2018-12-17T14:51:17.502Z,101454.59
2018-12-17T14:53:45.005Z,101460.22
2018-12-17T14:56:12.875Z,101468.30
2018-12-17T14:58:44.431Z,101478.56
2018-12-17T15:01:09.902Z,101471.55
2018-12-17T15:03:37.400Z,101481.50
2018-12-17T15:06:04.909Z,101488.53
2018-12-17T15:08:32.468Z,101486.66
2018-12-17T15:10:59.954Z,101487.75
2018-12-17T15:13:27.483Z,101500.41
2018-12-17T15:15:55.031Z,101500.70
2018-12-17T15:18:22.534Z,101510.16
2018-12-17T15:20:50.305Z,101520.67
2018-12-17T15:23:17.848Z,101522.30
2018-12-17T15:25:45.333Z,101522.04
2018-12-17T15:28:12.840Z,101526.88
2018-12-17T15:30:40.378Z,101528.22
2018-12-17T15:33:07.854Z,101529.55
2018-12-17T15:35:35.358Z,101527.13
2018-12-17T15:38:03.243Z,101542.25
2018-12-17T15:40:30.734Z,101550.86
2018-12-17T15:42:58.252Z,101551.42
2018-12-17T15:45:25.760Z,101554.12
2018-12-17T15:47:53.249Z,101558.43
2018-12-17T15:50:21.054Z,101569.20
2018-12-17T15:52:48.587Z,101576.47
2018-12-17T15:55:16.064Z,101582.41
2018-12-17T15:57:43.569Z,101583.73
2018-12-17T16:00:11.072Z,101586.16
2018-12-17T16:02:38.576Z,101591.00
2018-12-17T16:05:06.056Z,101591.56
2018-12-17T16:07:33.692Z,101591.56
2018-12-17T16:10:01.220Z,101590.50
2018-12-17T16:12:28.775Z,101599.64
2018-12-17T16:14:56.280Z,101609.61
2018-12-17T16:17:23.772Z,101610.39
2018-12-17T16:19:51.310Z,101612.54
2018-12-17T16:22:18.799Z,101610.94
2018-12-17T16:24:46.343Z,101613.91
2018-12-17T16:27:19.222Z,101616.81
2018-12-17T16:29:43.367Z,101626.54
2018-12-17T16:32:10.852Z,101624.11
2018-12-17T16:34:38.331Z,101626.52
2018-12-17T16:37:05.927Z,101625.42
2018-12-17T16:39:33.420Z,101640.80
2018-12-17T16:42:00.953Z,101641.87
2018-12-17T16:44:28.478Z,101634.32
2018-12-17T16:46:56.023Z,101640.48
2018-12-17T16:49:23.527Z,101644.23
2018-12-17T16:51:51.091Z,101642.63
2018-12-17T16:54:18.577Z,101643.11
2018-12-17T16:56:46.065Z,101648.48
2018-12-17T16:59:13.609Z,101661.44
2018-12-17T17:01:41.100Z,101655.19
2018-12-17T17:04:08.600Z,101653.61
2018-12-17T17:06:36.362Z,101654.13
2018-12-17T17:09:05.764Z,101661.40
2018-12-17T17:11:33.265Z,101658.95
2018-12-17T17:14:00.779Z,101660.55
2018-12-17T17:16:28.615Z,101657.56
2018-12-17T17:18:56.101Z,101665.66
2018-12-17T17:21:23.594Z,101666.98
2018-12-17T17:23:51.193Z,101667.01
2018-12-17T17:26:18.731Z,101672.91
2018-12-17T17:28:46.258Z,101676.95
2018-12-17T17:31:13.824Z,101676.43
2018-12-17T17:33:41.489Z,101680.73
2018-12-17T17:36:09.026Z,101685.05
2018-12-17T17:38:36.548Z,101695.55
2018-12-17T17:41:04.051Z,101694.75
2018-12-17T17:43:31.550Z,101688.26
2018-12-17T17:45:59.090Z,101700.69
2018-12-17T17:48:26.606Z,101703.64
2018-12-17T17:50:54.117Z,101705.23
2018-12-17T17:53:21.652Z,101720.05
2018-12-17T17:55:49.577Z,101710.86
2018-12-17T17:58:17.072Z,101708.95
2018-12-17T18:00:44.606Z,101715.42
2018-12-17T18:03:12.132Z,101709.73
2018-12-17T18:05:39.660Z,101718.40
2018-12-17T18:08:07.166Z,101728.08
2018-12-17T18:10:34.694Z,101731.00
2018-12-17T18:13:02.342Z,101733.42
2018-12-17T18:15:29.836Z,101730.98
2018-12-17T18:17:57.325Z,101740.41
2018-12-17T18:20:25.169Z,101747.34
2018-12-17T18:22:52.650Z,101748.14
2018-12-17T18:25:20.135Z,101760.00
2018-12-17T18:27:47.650Z,101756.73
2018-12-17T18:30:15.139Z,101755.96
2018-12-17T18:32:42.641Z,101763.55
2018-12-17T18:35:10.147Z,101771.11
2018-12-17T18:37:37.766Z,101765.48
2018-12-17T18:40:05.262Z,101773.56
2018-12-17T18:42:32.765Z,101776.00
2018-12-17T18:45:00.668Z,101781.92
2018-12-17T18:47:28.196Z,101785.47
2018-12-17T18:49:55.679Z,101792.48
2018-12-17T18:52:23.561Z,101788.19
2018-12-17T18:54:51.053Z,101793.86
2018-12-17T18:57:18.578Z,101799.78
2018-12-17T18:59:46.118Z,101803.88
2018-12-17T19:02:13.620Z,101796.11
2018-12-17T19:04:41.467Z,101800.17
2018-12-17T19:07:08.992Z,101806.36
2018-12-17T19:09:36.484Z,101803.09
2018-12-17T19:12:03.994Z,101804.70
2018-12-17T19:14:31.528Z,101803.92
2018-12-17T19:16:59.041Z,101814.98
2018-12-17T19:19:26.534Z,101809.55
2018-12-17T19:21:54.176Z,101815.78
2018-12-17T19:24:21.696Z,101813.37
2018-12-17T19:26:49.187Z,101812.29
2018-12-17T19:29:16.845Z,101825.77
2018-12-17T19:31:44.338Z,101833.37
2018-12-17T19:34:11.817Z,101831.77
2018-12-17T19:36:39.463Z,101825.28
2018-12-17T19:39:07.319Z,101822.88
2018-12-17T19:41:34.814Z,101826.66
2018-12-17T19:44:02.504Z,101825.58
2018-12-17T19:46:30.057Z,101827.41
2018-12-17T19:48:57.577Z,101832.51
2018-12-17T19:51:26.045Z,101842.77
2018-12-17T19:53:53.549Z,101841.13
2018-12-17T19:56:21.046Z,101849.50
2018-12-17T19:58:48.913Z,101848.13
2018-12-17T20:01:16.422Z,101857.87
2018-12-17T20:03:43.939Z,101849.19
2018-12-17T20:06:11.548Z,101856.75
2018-12-17T20:08:39.077Z,101863.23
2018-12-17T20:11:06.565Z,101873.17
2018-12-17T20:13:34.064Z,101876.70
2018-12-17T20:16:01.700Z,101867.50
2018-12-17T20:18:29.272Z,101877.47
2018-12-17T20:20:56.817Z,101881.51
2018-12-17T20:23:24.365Z,101883.38
2018-12-17T20:25:52.008Z,101885.49
2018-12-17T20:28:19.811Z,101887.09
2018-12-17T20:30:47.436Z,101888.16
2018-12-17T20:33:15.023Z,101889.44
2018-12-17T20:35:42.526Z,101895.66
2018-12-17T20:38:10.082Z,101894.83
2018-12-17T20:40:37.756Z,101892.66
2018-12-17T20:43:05.306Z,101892.34
2018-12-17T20:45:32.840Z,101904.20
2018-12-17T20:48:00.701Z,101907.11
2018-12-17T20:50:28.340Z,101900.58
2018-12-17T20:52:55.824Z,101903.02
2018-12-17T20:55:23.328Z,101908.66
2018-12-17T20:57:50.831Z,101901.63
2018-12-17T21:00:18.327Z,101907.53
2018-12-17T21:02:45.898Z,101906.70
2018-12-17T21:05:13.429Z,101902.30
2018-12-17T21:07:42.355Z,101910.16
2018-12-17T21:10:14.165Z,101908.48
2018-12-17T21:12:41.649Z,101914.64
2018-12-17T21:15:09.209Z,101916.46
2018-12-17T21:17:37.745Z,101916.10
2018-12-17T21:20:05.412Z,101919.30
2018-12-17T21:22:32.954Z,101929.48
2018-12-17T21:25:00.736Z,101930.25
2018-12-17T21:27:28.312Z,101932.58
2018-12-17T21:29:55.824Z,101928.64
2018-12-17T21:32:23.509Z,101930.23
2018-12-17T21:34:51.001Z,101930.92
2018-12-17T21:37:18.526Z,101934.12
2018-12-17T21:39:46.029Z,101935.38
2018-12-17T21:42:13.525Z,101934.76
2018-12-17T21:44:41.079Z,101938.49
2018-12-17T21:47:08.583Z,101935.14
2018-12-17T21:49:36.090Z,101930.27
2018-12-17T21:52:03.839Z,101933.67
2018-12-17T21:54:31.332Z,101946.59
2018-12-17T21:56:59.024Z,101945.46
2018-12-17T21:59:26.523Z,101942.98
2018-12-17T22:01:54.021Z,101949.07
2018-12-17T22:04:21.534Z,101951.96
2018-12-17T22:06:49.106Z,101954.56
2018-12-17T22:09:16.638Z,101952.03
2018-12-17T22:11:44.130Z,101954.42
2018-12-17T22:14:11.715Z,101957.61
2018-12-17T22:16:39.212Z,101958.56
2018-12-17T22:19:06.738Z,101956.86
2018-12-17T22:21:34.375Z,101958.91
2018-12-17T22:24:01.868Z,101953.73
2018-12-17T22:26:29.448Z,101958.26
2018-12-17T22:28:57.054Z,101961.41
2018-12-17T22:31:24.559Z,101959.20
2018-12-17T22:33:52.102Z,101962.33
2018-12-17T22:36:19.597Z,101967.16
2018-12-17T22:38:47.124Z,101963.67
2018-12-17T22:41:14.632Z,101971.19
2018-12-17T22:43:42.136Z,101973.92
2018-12-17T22:46:09.694Z,101969.44
2018-12-17T22:48:37.203Z,101973.73
2018-12-17T22:51:04.700Z,101966.77
2018-12-17T22:53:32.346Z,101967.31
2018-12-17T22:55:59.848Z,101969.24
2018-12-17T22:58:27.348Z,101981.08
2018-12-17T23:00:54.857Z,101981.59
2018-12-17T23:03:26.236Z,101983.23
2018-12-17T23:05:52.062Z,101982.13
2018-12-17T23:08:19.786Z,101981.13
2018-12-17T23:10:59.187Z,101981.38
2018-12-17T23:13:38.466Z,101978.11
2018-12-17T23:16:18.043Z,101980.79
2018-12-17T23:18:45.099Z,101982.08
2018-12-17T23:21:12.743Z,101978.84
2018-12-17T23:23:40.381Z,101978.30
2018-12-17T23:26:07.897Z,101987.41
2018-12-17T23:28:35.491Z,101983.33
2018-12-17T23:31:03.001Z,101985.70
2018-12-17T23:33:32.963Z,101985.95
2018-12-17T23:36:00.080Z,101981.69
2018-12-17T23:38:27.698Z,101980.64
2018-12-17T23:40:55.215Z,101978.25
2018-12-17T23:43:22.745Z,101975.86
2018-12-17T23:45:50.281Z,101977.52
2018-12-17T23:48:17.806Z,101984.02
2018-12-17T23:50:45.413Z,101987.45
2018-12-17T23:53:13.395Z,101986.45
2018-12-17T23:55:40.927Z,101985.62
2018-12-17T23:58:08.505Z,101985.92
